Aeroporto :
LOGIN :

Iscrizione | Disclaimer

   EN    FR    IT 

 










Sommario :    VFR   VFR Marginale   IFR   IFR Intensivo   IFR Molto Intensivo
Visibilità : 
Base nubi : 
>= 8 km
>= 3000ft
5 / 8 km
1000 / 3000 ft
1500m / 5 km
500 / 1000 ft
800 / 1500m
200 / 500 ft
< 800m
< 200 ft
Simboli :   Temporali  Nebbia  Neve Forte  Precipitazioni Forti  Vento > 20 kt
SIGMETs :   Varie  Temporali  Ghiacco  Turbolenza  Onda orograficha  Ceneri Vulcaniche







- Altitudine del aeroporto : 989 ft
- Codice IATA : TRN


LIMF - Torino Caselle

ULTIMO METAR :
  • 180550Z 27004KT CAVOK 03/M02 Q1024

METARs OBSOLETI :
  • 180520Z 28004KT CAVOK 03/M02 Q1024
  • 180450Z 24004KT CAVOK 04/M01 Q1024
  • 180420Z VRB02KT CAVOK 03/M01 Q1024
  • 180350Z VRB01KT CAVOK 02/M02 Q1024
  • 180320Z VRB01KT CAVOK 02/M01 Q1024

TAF TAF LIMF
Valido dal 18 a 06 ore il 19 a 06 ore UTC


180500Z 1806/1906 VRB05KT CAVOK
TEMPO 1812/1818 4000 BR
Nessun NOTAM noto per questo aeroporto.



MetMap, La meteo Aeronautica in un colpo d'occhio ! - Copyright ORBIFLY Dicembre 2007 - Disclaimer

ORBIFLY MET'MAP TEAM :

Programmazione e sviluppo : Alexandra Zaïnal
Concezione e sviluppo : Baudouin d'Aumeries
Co-Programmazione e sviluppo : Marc-Olivier Méhu
Supporto tecnico e logistico : Manuel Goepfert
Aiuto per la traduzione : Arnaldo La Scala

Contatto : metmap@orbifly.com




FONTI E CREDITI :

   NOAA